sensor_id;sensor_type;location;lat;lon;timestamp;pressure;altitude;pressure_sealevel;temperature;humidity
19457;BME280;9867;48.094;11.478;2023-01-26T00:02:09;95524.75;;;-0.19;100.00
19457;BME280;9867;48.094;11.478;2023-01-26T00:04:36;95509.84;;;-0.22;100.00
19457;BME280;9867;48.094;11.478;2023-01-26T00:07:02;95506.53;;;-0.22;100.00
19457;BME280;9867;48.094;11.478;2023-01-26T00:09:29;95505.47;;;-0.09;100.00
19457;BME280;9867;48.094;11.478;2023-01-26T00:11:55;95512.47;;;-0.12;100.00
19457;BME280;9867;48.094;11.478;2023-01-26T00:14:22;95503.28;;;-0.13;100.00
19457;BME280;9867;48.094;11.478;2023-01-26T00:16:48;95496.28;;;-0.10;100.00
19457;BME280;9867;48.094;11.478;2023-01-26T00:19:15;95506.09;;;-0.48;100.00
19457;BME280;9867;48.094;11.478;2023-01-26T00:21:42;95500.38;;;-0.50;100.00
19457;BME280;9867;48.094;11.478;2023-01-26T00:24:08;95491.72;;;-0.37;100.00
19457;BME280;9867;48.094;11.478;2023-01-26T00:26:35;95472.91;;;-0.32;100.00
19457;BME280;9867;48.094;11.478;2023-01-26T00:29:01;95487.78;;;-0.29;100.00
19457;BME280;9867;48.094;11.478;2023-01-26T00:31:28;95485.97;;;-0.27;100.00
19457;BME280;9867;48.094;11.478;2023-01-26T00:33:55;95478.06;;;-0.34;100.00
19457;BME280;9867;48.094;11.478;2023-01-26T00:36:22;95488.34;;;-0.26;100.00
19457;BME280;9867;48.094;11.478;2023-01-26T00:38:49;95491.13;;;-0.29;100.00
19457;BME280;9867;48.094;11.478;2023-01-26T00:41:16;95487.91;;;-0.31;100.00
19457;BME280;9867;48.094;11.478;2023-01-26T00:44:01;95486.22;;;-0.42;100.00
19457;BME280;9867;48.094;11.478;2023-01-26T00:46:28;95489.25;;;-0.48;100.00
19457;BME280;9867;48.094;11.478;2023-01-26T00:48:54;95481.69;;;-0.48;100.00
19457;BME280;9867;48.094;11.478;2023-01-26T00:51:21;95485.50;;;-0.64;100.00
19457;BME280;9867;48.094;11.478;2023-01-26T00:53:48;95476.25;;;-0.43;100.00
19457;BME280;9867;48.094;11.478;2023-01-26T00:56:15;95486.72;;;-0.48;100.00
19457;BME280;9867;48.094;11.478;2023-01-26T00:58:41;95472.13;;;-0.33;100.00
19457;BME280;9867;48.094;11.478;2023-01-26T01:01:10;95471.00;;;-0.40;100.00
19457;BME280;9867;48.094;11.478;2023-01-26T01:03:40;95472.91;;;-0.32;100.00
19457;BME280;9867;48.094;11.478;2023-01-26T01:06:06;95472.47;;;-0.38;100.00
19457;BME280;9867;48.094;11.478;2023-01-26T01:08:36;95483.03;;;-0.23;100.00
19457;BME280;9867;48.094;11.478;2023-01-26T01:11:05;95474.06;;;-0.37;100.00
19457;BME280;9867;48.094;11.478;2023-01-26T01:13:31;95473.34;;;-0.27;100.00
19457;BME280;9867;48.094;11.478;2023-01-26T01:15:58;95464.19;;;-0.08;100.00
19457;BME280;9867;48.094;11.478;2023-01-26T01:18:24;95469.91;;;-0.06;100.00
19457;BME280;9867;48.094;11.478;2023-01-26T01:20:51;95461.47;;;0.05;100.00
19457;BME280;9867;48.094;11.478;2023-01-26T01:23:17;95475.25;;;0.01;100.00
19457;BME280;9867;48.094;11.478;2023-01-26T01:25:44;95479.00;;;-0.14;100.00
19457;BME280;9867;48.094;11.478;2023-01-26T01:28:12;95474.88;;;-0.15;100.00
19457;BME280;9867;48.094;11.478;2023-01-26T01:30:38;95469.72;;;-0.14;100.00
19457;BME280;9867;48.094;11.478;2023-01-26T01:33:04;95470.75;;;-0.16;100.00
19457;BME280;9867;48.094;11.478;2023-01-26T01:35:31;95468.59;;;-0.21;100.00
19457;BME280;9867;48.094;11.478;2023-01-26T01:38:01;95467.28;;;-0.25;100.00
19457;BME280;9867;48.094;11.478;2023-01-26T01:40:28;95466.34;;;-0.24;100.00
19457;BME280;9867;48.094;11.478;2023-01-26T01:42:54;95471.06;;;-0.30;100.00
19457;BME280;9867;48.094;11.478;2023-01-26T01:45:36;95468.78;;;-0.54;100.00
19457;BME280;9867;48.094;11.478;2023-01-26T01:48:11;95469.88;;;-0.47;100.00
19457;BME280;9867;48.094;11.478;2023-01-26T01:50:39;95467.78;;;-0.42;100.00
19457;BME280;9867;48.094;11.478;2023-01-26T01:53:07;95457.84;;;-0.44;100.00
19457;BME280;9867;48.094;11.478;2023-01-26T01:55:35;95463.88;;;-0.67;100.00
19457;BME280;9867;48.094;11.478;2023-01-26T01:58:03;95464.72;;;-0.46;100.00
19457;BME280;9867;48.094;11.478;2023-01-26T02:00:31;95457.44;;;-0.28;100.00
19457;BME280;9867;48.094;11.478;2023-01-26T02:03:00;95464.56;;;-0.33;100.00
19457;BME280;9867;48.094;11.478;2023-01-26T02:05:51;95460.34;;;-0.44;100.00
19457;BME280;9867;48.094;11.478;2023-01-26T02:08:21;95460.91;;;-0.40;100.00
19457;BME280;9867;48.094;11.478;2023-01-26T02:10:52;95443.47;;;-0.53;100.00
19457;BME280;9867;48.094;11.478;2023-01-26T02:13:19;95451.25;;;-0.56;100.00
19457;BME280;9867;48.094;11.478;2023-01-26T02:15:48;95450.78;;;-0.50;100.00
19457;BME280;9867;48.094;11.478;2023-01-26T02:18:15;95442.94;;;-0.47;100.00
19457;BME280;9867;48.094;11.478;2023-01-26T02:20:44;95446.34;;;-0.37;100.00
19457;BME280;9867;48.094;11.478;2023-01-26T02:23:19;95438.13;;;-0.39;100.00
19457;BME280;9867;48.094;11.478;2023-01-26T02:26:07;95434.47;;;-0.46;100.00
19457;BME280;9867;48.094;11.478;2023-01-26T02:28:34;95431.59;;;-0.41;100.00
19457;BME280;9867;48.094;11.478;2023-01-26T02:31:01;95429.44;;;-0.46;100.00
19457;BME280;9867;48.094;11.478;2023-01-26T02:33:30;95427.59;;;-0.44;100.00
19457;BME280;9867;48.094;11.478;2023-01-26T02:36:01;95424.78;;;-0.50;100.00
19457;BME280;9867;48.094;11.478;2023-01-26T02:38:40;95416.78;;;-0.55;100.00
19457;BME280;9867;48.094;11.478;2023-01-26T02:41:10;95416.88;;;-0.25;100.00
19457;BME280;9867;48.094;11.478;2023-01-26T02:43:38;95415.00;;;-0.23;100.00
19457;BME280;9867;48.094;11.478;2023-01-26T02:46:05;95405.44;;;-0.29;100.00
19457;BME280;9867;48.094;11.478;2023-01-26T02:48:36;95406.09;;;-0.48;100.00
19457;BME280;9867;48.094;11.478;2023-01-26T02:51:21;95393.13;;;-0.43;100.00
19457;BME280;9867;48.094;11.478;2023-01-26T02:53:48;95405.34;;;-0.39;100.00
19457;BME280;9867;48.094;11.478;2023-01-26T02:56:16;95406.94;;;-0.58;100.00
19457;BME280;9867;48.094;11.478;2023-01-26T02:58:42;95397.47;;;-0.66;100.00
19457;BME280;9867;48.094;11.478;2023-01-26T03:01:09;95397.63;;;-0.26;100.00
19457;BME280;9867;48.094;11.478;2023-01-26T03:03:45;95398.81;;;-0.20;100.00
19457;BME280;9867;48.094;11.478;2023-01-26T03:06:13;95387.84;;;-0.40;100.00
19457;BME280;9867;48.094;11.478;2023-01-26T03:08:40;95384.34;;;-0.49;100.00
19457;BME280;9867;48.094;11.478;2023-01-26T03:11:07;95384.03;;;-0.35;100.00
19457;BME280;9867;48.094;11.478;2023-01-26T03:13:34;95379.31;;;-0.49;100.00
19457;BME280;9867;48.094;11.478;2023-01-26T03:16:04;95381.28;;;-0.52;100.00
19457;BME280;9867;48.094;11.478;2023-01-26T03:18:33;95382.19;;;-0.53;100.00
19457;BME280;9867;48.094;11.478;2023-01-26T03:21:21;95386.75;;;-0.26;100.00
19457;BME280;9867;48.094;11.478;2023-01-26T03:24:08;95378.69;;;-0.41;100.00
19457;BME280;9867;48.094;11.478;2023-01-26T03:27:08;95363.06;;;-0.56;100.00
19457;BME280;9867;48.094;11.478;2023-01-26T03:29:57;95365.84;;;-0.59;100.00
19457;BME280;9867;48.094;11.478;2023-01-26T03:32:24;95362.56;;;-0.71;100.00
19457;BME280;9867;48.094;11.478;2023-01-26T03:34:52;95371.47;;;-0.66;100.00
19457;BME280;9867;48.094;11.478;2023-01-26T03:37:18;95370.00;;;-0.69;100.00
19457;BME280;9867;48.094;11.478;2023-01-26T03:39:56;95372.41;;;-0.68;100.00
19457;BME280;9867;48.094;11.478;2023-01-26T03:42:41;95364.81;;;-0.56;100.00
19457;BME280;9867;48.094;11.478;2023-01-26T03:45:28;95363.53;;;-0.51;100.00
19457;BME280;9867;48.094;11.478;2023-01-26T03:48:13;95369.72;;;-0.55;100.00
19457;BME280;9867;48.094;11.478;2023-01-26T03:51:00;95368.31;;;-0.48;100.00
19457;BME280;9867;48.094;11.478;2023-01-26T03:53:44;95365.00;;;-0.48;100.00
19457;BME280;9867;48.094;11.478;2023-01-26T03:56:29;95362.31;;;-0.47;100.00
19457;BME280;9867;48.094;11.478;2023-01-26T03:59:03;95360.78;;;-0.38;100.00
19457;BME280;9867;48.094;11.478;2023-01-26T04:01:34;95367.34;;;-0.47;100.00
19457;BME280;9867;48.094;11.478;2023-01-26T04:04:01;95363.06;;;-0.56;100.00
19457;BME280;9867;48.094;11.478;2023-01-26T04:06:47;95364.44;;;-0.73;100.00
19457;BME280;9867;48.094;11.478;2023-01-26T04:09:34;95365.47;;;-0.75;100.00
19457;BME280;9867;48.094;11.478;2023-01-26T04:12:02;95361.28;;;-0.65;100.00
19457;BME280;9867;48.094;11.478;2023-01-26T04:14:29;95361.91;;;-0.73;100.00
19457;BME280;9867;48.094;11.478;2023-01-26T04:17:22;95351.19;;;-0.86;100.00
19457;BME280;9867;48.094;11.478;2023-01-26T04:20:08;95355.31;;;-0.64;100.00
19457;BME280;9867;48.094;11.478;2023-01-26T04:22:53;95350.84;;;-0.40;100.00
19457;BME280;9867;48.094;11.478;2023-01-26T04:25:20;95350.59;;;-0.37;100.00
19457;BME280;9867;48.094;11.478;2023-01-26T04:27:48;95343.06;;;-0.57;100.00
19457;BME280;9867;48.094;11.478;2023-01-26T04:30:15;95338.19;;;-0.70;100.00
19457;BME280;9867;48.094;11.478;2023-01-26T04:32:43;95341.81;;;-0.84;100.00
19457;BME280;9867;48.094;11.478;2023-01-26T04:35:11;95341.25;;;-0.66;100.00
19457;BME280;9867;48.094;11.478;2023-01-26T04:37:38;95340.34;;;-0.65;100.00
19457;BME280;9867;48.094;11.478;2023-01-26T04:40:06;95340.53;;;-0.57;100.00
19457;BME280;9867;48.094;11.478;2023-01-26T04:42:34;95355.88;;;-0.60;100.00
19457;BME280;9867;48.094;11.478;2023-01-26T04:45:03;95339.84;;;-0.59;100.00
19457;BME280;9867;48.094;11.478;2023-01-26T04:47:30;95341.88;;;-0.53;100.00
19457;BME280;9867;48.094;11.478;2023-01-26T04:49:57;95344.28;;;-0.52;100.00
19457;BME280;9867;48.094;11.478;2023-01-26T04:52:24;95339.03;;;-0.39;100.00
19457;BME280;9867;48.094;11.478;2023-01-26T04:54:50;95331.81;;;-0.53;100.00
19457;BME280;9867;48.094;11.478;2023-01-26T04:57:17;95332.66;;;-0.43;100.00
19457;BME280;9867;48.094;11.478;2023-01-26T04:59:48;95338.47;;;-0.43;100.00
19457;BME280;9867;48.094;11.478;2023-01-26T05:02:14;95337.22;;;-0.58;100.00
19457;BME280;9867;48.094;11.478;2023-01-26T05:04:41;95352.56;;;-0.40;100.00
19457;BME280;9867;48.094;11.478;2023-01-26T05:07:08;95351.19;;;-0.44;100.00
19457;BME280;9867;48.094;11.478;2023-01-26T05:09:35;95344.69;;;-0.47;100.00
19457;BME280;9867;48.094;11.478;2023-01-26T05:12:34;95353.97;;;-0.68;100.00
19457;BME280;9867;48.094;11.478;2023-01-26T05:15:28;95353.59;;;-0.43;100.00
19457;BME280;9867;48.094;11.478;2023-01-26T05:18:06;95350.66;;;-0.27;100.00
19457;BME280;9867;48.094;11.478;2023-01-26T05:20:53;95354.34;;;-0.52;100.00
19457;BME280;9867;48.094;11.478;2023-01-26T05:23:25;95361.00;;;-0.51;100.00
19457;BME280;9867;48.094;11.478;2023-01-26T05:26:30;95354.59;;;-0.55;100.00
19457;BME280;9867;48.094;11.478;2023-01-26T05:29:05;95346.41;;;-0.26;100.00
19457;BME280;9867;48.094;11.478;2023-01-26T05:31:32;95344.97;;;-0.50;100.00
19457;BME280;9867;48.094;11.478;2023-01-26T05:33:59;95354.34;;;-0.52;100.00
19457;BME280;9867;48.094;11.478;2023-01-26T05:36:26;95354.84;;;-0.58;100.00
19457;BME280;9867;48.094;11.478;2023-01-26T05:38:53;95348.16;;;-0.48;100.00
19457;BME280;9867;48.094;11.478;2023-01-26T05:41:23;95348.28;;;-0.49;100.00
19457;BME280;9867;48.094;11.478;2023-01-26T05:44:01;95340.91;;;-0.62;100.00
19457;BME280;9867;48.094;11.478;2023-01-26T05:46:35;95344.41;;;-0.53;100.00
19457;BME280;9867;48.094;11.478;2023-01-26T05:49:02;95350.78;;;-0.70;100.00
19457;BME280;9867;48.094;11.478;2023-01-26T05:51:28;95344.94;;;-0.71;100.00
19457;BME280;9867;48.094;11.478;2023-01-26T05:53:55;95350.66;;;-0.69;100.00
19457;BME280;9867;48.094;11.478;2023-01-26T05:56:23;95350.25;;;-0.74;100.00
19457;BME280;9867;48.094;11.478;2023-01-26T05:58:55;95351.88;;;-0.63;100.00
19457;BME280;9867;48.094;11.478;2023-01-26T06:01:22;95356.38;;;-0.66;100.00
19457;BME280;9867;48.094;11.478;2023-01-26T06:03:55;95349.72;;;-0.68;100.00
19457;BME280;9867;48.094;11.478;2023-01-26T06:06:22;95356.59;;;-0.70;100.00
19457;BME280;9867;48.094;11.478;2023-01-26T06:08:57;95354.59;;;-0.76;100.00
19457;BME280;9867;48.094;11.478;2023-01-26T06:11:30;95357.25;;;-0.77;100.00
19457;BME280;9867;48.094;11.478;2023-01-26T06:14:20;95360.06;;;-0.50;100.00
19457;BME280;9867;48.094;11.478;2023-01-26T06:16:47;95364.25;;;-0.60;100.00
19457;BME280;9867;48.094;11.478;2023-01-26T06:19:14;95363.38;;;-0.70;100.00
19457;BME280;9867;48.094;11.478;2023-01-26T06:21:43;95355.53;;;-0.56;100.00
19457;BME280;9867;48.094;11.478;2023-01-26T06:24:12;95360.44;;;-0.33;100.00
19457;BME280;9867;48.094;11.478;2023-01-26T06:26:39;95357.53;;;-0.29;100.00
19457;BME280;9867;48.094;11.478;2023-01-26T06:29:05;95356.63;;;-0.49;100.00
19457;BME280;9867;48.094;11.478;2023-01-26T06:31:35;95358.47;;;-0.51;100.00
19457;BME280;9867;48.094;11.478;2023-01-26T06:34:03;95362.31;;;-0.47;100.00
19457;BME280;9867;48.094;11.478;2023-01-26T06:36:32;95357.72;;;-0.62;100.00
19457;BME280;9867;48.094;11.478;2023-01-26T06:38:59;95356.69;;;-0.60;100.00
19457;BME280;9867;48.094;11.478;2023-01-26T06:41:27;95351.28;;;-0.55;100.00
19457;BME280;9867;48.094;11.478;2023-01-26T06:43:54;95349.25;;;-0.61;100.00
19457;BME280;9867;48.094;11.478;2023-01-26T06:46:21;95356.59;;;-0.70;100.00
19457;BME280;9867;48.094;11.478;2023-01-26T06:48:48;95364.72;;;-0.66;100.00
19457;BME280;9867;48.094;11.478;2023-01-26T06:54:17;95350.97;;;-0.62;100.00
19457;BME280;9867;48.094;11.478;2023-01-26T06:57:03;95349.25;;;-0.61;100.00
19457;BME280;9867;48.094;11.478;2023-01-26T06:59:39;95349.13;;;-0.60;100.00
19457;BME280;9867;48.094;11.478;2023-01-26T07:02:22;95352.69;;;-0.62;100.00
19457;BME280;9867;48.094;11.478;2023-01-26T07:04:49;95337.44;;;-0.61;100.00
19457;BME280;9867;48.094;11.478;2023-01-26T07:07:16;95342.81;;;-0.54;100.00
19457;BME280;9867;48.094;11.478;2023-01-26T07:09:42;95344.78;;;-0.58;100.00
19457;BME280;9867;48.094;11.478;2023-01-26T07:12:09;95352.31;;;-0.58;100.00
19457;BME280;9867;48.094;11.478;2023-01-26T07:14:36;95352.22;;;-0.56;100.00
19457;BME280;9867;48.094;11.478;2023-01-26T07:17:02;95353.31;;;-0.49;100.00
19457;BME280;9867;48.094;11.478;2023-01-26T07:19:29;95348.19;;;-0.38;100.00
19457;BME280;9867;48.094;11.478;2023-01-26T07:22:00;95350.81;;;-0.19;100.00
19457;BME280;9867;48.094;11.478;2023-01-26T07:24:35;95355.59;;;-0.16;100.00
19457;BME280;9867;48.094;11.478;2023-01-26T07:27:01;95359.41;;;-0.21;100.00
19457;BME280;9867;48.094;11.478;2023-01-26T07:29:28;95364.66;;;-0.34;100.00
19457;BME280;9867;48.094;11.478;2023-01-26T07:31:55;95357.44;;;-0.48;100.00
19457;BME280;9867;48.094;11.478;2023-01-26T07:34:21;95351.19;;;-0.44;100.00
19457;BME280;9867;48.094;11.478;2023-01-26T07:36:50;95347.47;;;-0.50;100.00
19457;BME280;9867;48.094;11.478;2023-01-26T07:39:16;95349.34;;;-0.42;100.00
19457;BME280;9867;48.094;11.478;2023-01-26T07:41:43;95344.69;;;-0.47;100.00
19457;BME280;9867;48.094;11.478;2023-01-26T07:44:38;95346.47;;;-0.38;100.00
19457;BME280;9867;48.094;11.478;2023-01-26T07:47:04;95338.38;;;-0.41;100.00
19457;BME280;9867;48.094;11.478;2023-01-26T07:49:31;95349.69;;;-0.56;100.00
19457;BME280;9867;48.094;11.478;2023-01-26T07:51:58;95345.81;;;-0.60;100.00
19457;BME280;9867;48.094;11.478;2023-01-26T07:54:25;95347.41;;;-0.59;100.00
19457;BME280;9867;48.094;11.478;2023-01-26T07:56:51;95338.31;;;-0.51;100.00
19457;BME280;9867;48.094;11.478;2023-01-26T07:59:19;95338.72;;;-0.46;100.00
19457;BME280;9867;48.094;11.478;2023-01-26T08:01:48;95335.56;;;1.40;100.00
19457;BME280;9867;48.094;11.478;2023-01-26T08:04:15;95340.94;;;3.37;100.00
19457;BME280;9867;48.094;11.478;2023-01-26T08:06:41;95342.59;;;3.72;100.00
19457;BME280;9867;48.094;11.478;2023-01-26T08:09:08;95354.72;;;2.54;100.00
19457;BME280;9867;48.094;11.478;2023-01-26T08:11:35;95351.13;;;1.26;100.00
19457;BME280;9867;48.094;11.478;2023-01-26T08:14:01;95338.34;;;0.70;100.00
19457;BME280;9867;48.094;11.478;2023-01-26T08:16:28;95339.31;;;0.19;100.00
19457;BME280;9867;48.094;11.478;2023-01-26T08:18:55;95338.94;;;0.33;100.00
19457;BME280;9867;48.094;11.478;2023-01-26T08:21:21;95336.72;;;-0.01;100.00
19457;BME280;9867;48.094;11.478;2023-01-26T08:23:48;95337.66;;;-0.22;100.00
19457;BME280;9867;48.094;11.478;2023-01-26T08:26:15;95323.06;;;-0.28;100.00
19457;BME280;9867;48.094;11.478;2023-01-26T08:28:43;95321.66;;;-0.12;100.00
19457;BME280;9867;48.094;11.478;2023-01-26T08:31:12;95323.72;;;-0.47;100.00
19457;BME280;9867;48.094;11.478;2023-01-26T08:33:40;95321.38;;;-0.49;100.00
19457;BME280;9867;48.094;11.478;2023-01-26T08:36:10;95315.91;;;-0.54;100.00
19457;BME280;9867;48.094;11.478;2023-01-26T08:38:37;95323.56;;;-0.55;100.00
19457;BME280;9867;48.094;11.478;2023-01-26T08:41:04;95314.31;;;-0.45;100.00
19457;BME280;9867;48.094;11.478;2023-01-26T08:43:31;95319.75;;;-0.50;100.00
19457;BME280;9867;48.094;11.478;2023-01-26T08:45:58;95324.97;;;-0.42;100.00
19457;BME280;9867;48.094;11.478;2023-01-26T08:48:25;95311.53;;;-0.21;100.00
19457;BME280;9867;48.094;11.478;2023-01-26T08:50:52;95322.59;;;-0.13;100.00
19457;BME280;9867;48.094;11.478;2023-01-26T08:53:20;95308.47;;;-0.55;100.00
19457;BME280;9867;48.094;11.478;2023-01-26T08:55:46;95322.94;;;-0.27;100.00
19457;BME280;9867;48.094;11.478;2023-01-26T08:58:13;95320.88;;;-0.12;100.00
19457;BME280;9867;48.094;11.478;2023-01-26T09:00:40;95324.63;;;0.03;100.00
19457;BME280;9867;48.094;11.478;2023-01-26T09:03:07;95325.31;;;-0.25;100.00
19457;BME280;9867;48.094;11.478;2023-01-26T09:05:35;95321.97;;;-0.56;100.00
19457;BME280;9867;48.094;11.478;2023-01-26T09:08:03;95322.91;;;-0.78;100.00
19457;BME280;9867;48.094;11.478;2023-01-26T09:10:30;95315.91;;;-0.75;100.00
19457;BME280;9867;48.094;11.478;2023-01-26T09:12:57;95317.91;;;-0.89;100.00
19457;BME280;9867;48.094;11.478;2023-01-26T09:15:24;95319.81;;;-0.82;100.00
19457;BME280;9867;48.094;11.478;2023-01-26T09:17:50;95318.78;;;-1.00;100.00
19457;BME280;9867;48.094;11.478;2023-01-26T09:20:18;95315.34;;;-0.78;100.00
19457;BME280;9867;48.094;11.478;2023-01-26T09:22:45;95320.22;;;-0.35;100.00
19457;BME280;9867;48.094;11.478;2023-01-26T09:25:11;95324.50;;;-0.56;100.00
19457;BME280;9867;48.094;11.478;2023-01-26T09:27:39;95322.22;;;-0.80;100.00
19457;BME280;9867;48.094;11.478;2023-01-26T09:30:07;95322.47;;;-0.83;100.00
19457;BME280;9867;48.094;11.478;2023-01-26T09:32:34;95332.34;;;-0.91;100.00
19457;BME280;9867;48.094;11.478;2023-01-26T09:35:00;95325.03;;;-0.94;100.00
19457;BME280;9867;48.094;11.478;2023-01-26T09:37:27;95326.69;;;-0.84;100.00
19457;BME280;9867;48.094;11.478;2023-01-26T09:39:53;95319.63;;;-0.90;100.00
19457;BME280;9867;48.094;11.478;2023-01-26T09:42:37;95317.00;;;-0.88;100.00
19457;BME280;9867;48.094;11.478;2023-01-26T09:45:17;95319.81;;;-0.82;100.00
19457;BME280;9867;48.094;11.478;2023-01-26T09:47:58;95322.03;;;-0.88;100.00
19457;BME280;9867;48.094;11.478;2023-01-26T09:50:33;95333.31;;;-1.04;100.00
19457;BME280;9867;48.094;11.478;2023-01-26T09:53:06;95335.19;;;-0.85;100.00
19457;BME280;9867;48.094;11.478;2023-01-26T09:55:39;95322.47;;;-0.83;100.00
19457;BME280;9867;48.094;11.478;2023-01-26T09:58:12;95327.25;;;-0.80;100.00
19457;BME280;9867;48.094;11.478;2023-01-26T10:00:43;95318.81;;;-0.70;100.00
19457;BME280;9867;48.094;11.478;2023-01-26T10:03:18;95324.31;;;-0.64;100.00
19457;BME280;9867;48.094;11.478;2023-01-26T10:05:52;95322.59;;;-0.64;100.00
19457;BME280;9867;48.094;11.478;2023-01-26T10:08:42;95318.34;;;-0.63;100.00
19457;BME280;9867;48.094;11.478;2023-01-26T10:11:13;95316.03;;;-0.76;100.00
19457;BME280;9867;48.094;11.478;2023-01-26T10:13:49;95311.22;;;-0.58;100.00
19457;BME280;9867;48.094;11.478;2023-01-26T10:16:18;95313.31;;;-0.63;100.00
19457;BME280;9867;48.094;11.478;2023-01-26T10:18:52;95321.53;;;-0.61;100.00
19457;BME280;9867;48.094;11.478;2023-01-26T10:21:22;95317.66;;;-0.65;100.00
19457;BME280;9867;48.094;11.478;2023-01-26T10:23:51;95297.88;;;-0.70;100.00
19457;BME280;9867;48.094;11.478;2023-01-26T10:26:20;95313.06;;;-0.60;100.00
19457;BME280;9867;48.094;11.478;2023-01-26T10:28:48;95301.47;;;-0.42;100.00
19457;BME280;9867;48.094;11.478;2023-01-26T10:31:23;95311.50;;;-0.31;100.00
19457;BME280;9867;48.094;11.478;2023-01-26T10:33:53;95311.13;;;-0.47;100.00
19457;BME280;9867;48.094;11.478;2023-01-26T10:36:20;95306.91;;;-0.47;100.00
19457;BME280;9867;48.094;11.478;2023-01-26T10:38:47;95303.53;;;-0.57;100.00
19457;BME280;9867;48.094;11.478;2023-01-26T10:41:25;95307.47;;;-0.64;100.00
19457;BME280;9867;48.094;11.478;2023-01-26T10:43:53;95309.69;;;-0.71;100.00
19457;BME280;9867;48.094;11.478;2023-01-26T10:46:27;95305.03;;;-0.75;100.00
19457;BME280;9867;48.094;11.478;2023-01-26T10:48:56;95301.63;;;-0.64;100.00
19457;BME280;9867;48.094;11.478;2023-01-26T10:51:26;95298.16;;;-0.73;100.00
19457;BME280;9867;48.094;11.478;2023-01-26T10:54:18;95311.44;;;-0.71;100.00
19457;BME280;9867;48.094;11.478;2023-01-26T10:56:48;95297.84;;;-0.80;100.00
19457;BME280;9867;48.094;11.478;2023-01-26T10:59:24;95295.63;;;-0.73;100.00
19457;BME280;9867;48.094;11.478;2023-01-26T11:01:53;95301.75;;;-0.87;100.00
19457;BME280;9867;48.094;11.478;2023-01-26T11:04:21;95305.63;;;-1.04;100.00
19457;BME280;9867;48.094;11.478;2023-01-26T11:06:48;95295.19;;;-0.99;100.00
19457;BME280;9867;48.094;11.478;2023-01-26T11:09:19;95292.50;;;-0.86;100.00
19457;BME280;9867;48.094;11.478;2023-01-26T11:12:00;95301.41;;;-0.82;100.00
19457;BME280;9867;48.094;11.478;2023-01-26T11:14:28;95286.53;;;-0.85;100.00
19457;BME280;9867;48.094;11.478;2023-01-26T11:17:12;95289.06;;;-0.85;100.00
19457;BME280;9867;48.094;11.478;2023-01-26T11:19:51;95296.25;;;-0.81;100.00
19457;BME280;9867;48.094;11.478;2023-01-26T11:22:29;95286.47;;;-0.74;100.00
19457;BME280;9867;48.094;11.478;2023-01-26T11:25:02;95293.34;;;-0.55;100.00
19457;BME280;9867;48.094;11.478;2023-01-26T11:27:47;95291.56;;;-0.64;100.00
19457;BME280;9867;48.094;11.478;2023-01-26T11:30:43;95289.34;;;-0.58;100.00
19457;BME280;9867;48.094;11.478;2023-01-26T11:33:21;95297.94;;;-0.60;100.00
19457;BME280;9867;48.094;11.478;2023-01-26T11:35:58;95293.16;;;-0.63;100.00
19457;BME280;9867;48.094;11.478;2023-01-26T11:38:38;95297.47;;;-0.54;100.00
19457;BME280;9867;48.094;11.478;2023-01-26T11:41:23;95294.50;;;-0.59;100.00
19457;BME280;9867;48.094;11.478;2023-01-26T11:44:01;95281.47;;;-0.64;100.00
19457;BME280;9867;48.094;11.478;2023-01-26T11:49:43;95283.06;;;-0.63;100.00
19457;BME280;9867;48.094;11.478;2023-01-26T11:52:22;95282.28;;;-0.64;100.00
19457;BME280;9867;48.094;11.478;2023-01-26T11:55:06;95279.63;;;-0.62;100.00
19457;BME280;9867;48.094;11.478;2023-01-26T11:57:47;95281.38;;;-0.63;100.00
19457;BME280;9867;48.094;11.478;2023-01-26T12:00:20;95282.97;;;-0.62;100.00
19457;BME280;9867;48.094;11.478;2023-01-26T12:03:00;95280.69;;;-0.65;100.00
19457;BME280;9867;48.094;11.478;2023-01-26T12:05:32;95276.22;;;-0.82;100.00
19457;BME280;9867;48.094;11.478;2023-01-26T12:08:06;95274.38;;;-0.80;100.00
19457;BME280;9867;48.094;11.478;2023-01-26T12:10:42;95254.84;;;-0.88;100.00
19457;BME280;9867;48.094;11.478;2023-01-26T12:13:15;95266.06;;;-0.92;100.00
19457;BME280;9867;48.094;11.478;2023-01-26T12:15:49;95264.78;;;-0.86;100.00
19457;BME280;9867;48.094;11.478;2023-01-26T12:18:21;95257.13;;;-0.85;100.00
19457;BME280;9867;48.094;11.478;2023-01-26T12:21:01;95257.25;;;-0.86;100.00
19457;BME280;9867;48.094;11.478;2023-01-26T12:23:34;95264.19;;;-0.79;100.00
19457;BME280;9867;48.094;11.478;2023-01-26T12:26:06;95260.19;;;-0.81;100.00
19457;BME280;9867;48.094;11.478;2023-01-26T12:28:38;95262.28;;;-0.86;100.00
19457;BME280;9867;48.094;11.478;2023-01-26T12:31:13;95259.94;;;-0.78;100.00
19457;BME280;9867;48.094;11.478;2023-01-26T12:33:43;95246.34;;;-0.66;100.00
19457;BME280;9867;48.094;11.478;2023-01-26T12:36:26;95252.97;;;-0.65;100.00
19457;BME280;9867;48.094;11.478;2023-01-26T12:39:05;95245.16;;;-0.72;100.00
19457;BME280;9867;48.094;11.478;2023-01-26T12:41:51;95250.81;;;-0.70;100.00
19457;BME280;9867;48.094;11.478;2023-01-26T12:44:35;95254.28;;;-0.71;100.00
19457;BME280;9867;48.094;11.478;2023-01-26T12:47:10;95245.00;;;-0.70;100.00
19457;BME280;9867;48.094;11.478;2023-01-26T12:49:42;95252.06;;;-0.64;100.00
19457;BME280;9867;48.094;11.478;2023-01-26T12:52:16;95246.16;;;-0.53;100.00
19457;BME280;9867;48.094;11.478;2023-01-26T12:54:46;95245.97;;;-0.61;100.00
19457;BME280;9867;48.094;11.478;2023-01-26T12:57:19;95241.69;;;-0.71;100.00
19457;BME280;9867;48.094;11.478;2023-01-26T12:59:47;95250.13;;;-0.81;100.00
19457;BME280;9867;48.094;11.478;2023-01-26T13:02:23;95257.25;;;-0.86;100.00
19457;BME280;9867;48.094;11.478;2023-01-26T13:04:52;95257.38;;;-0.88;100.00
19457;BME280;9867;48.094;11.478;2023-01-26T13:07:31;95253.91;;;-0.87;100.00
19457;BME280;9867;48.094;11.478;2023-01-26T13:10:18;95256.63;;;-0.79;100.00
19457;BME280;9867;48.094;11.478;2023-01-26T13:12:47;95255.75;;;-0.68;100.00
19457;BME280;9867;48.094;11.478;2023-01-26T13:15:15;95243.22;;;-0.58;100.00
19457;BME280;9867;48.094;11.478;2023-01-26T13:18:08;95239.41;;;-0.53;100.00
19457;BME280;9867;48.094;11.478;2023-01-26T13:20:42;95234.31;;;-0.62;100.00